Terminal Aerodrome Forecast
Issued by NWS

Home | Current Version | Previous Version | Graphics & Text | Print | Product List | Glossary Off
Versions: 1 2 3 4 5 6 7 8 9 10 11 12 13 14 15 16

000
FTUS43 KABR 221739
TAFMBG
TAF
KMBG 221739Z 2218/2318 18012KT P6SM SCT250
     FM222100 23017G24KT P6SM SCT120
     FM230000 23008KT P6SM BKN200
     FM230500 28012KT P6SM SCT250
     FM231100 31016G26KT P6SM FEW200
     FM231500 32026G36KT P6SM FEW200=

USA.gov is the U.S. government's official web portal to all federal, state and local government web resources and services.